sensor_id;sensor_type;location;lat;lon;timestamp;P1;durP1;ratioP1;P2;durP2;ratioP2
10232;SDS011;5161;48.174;11.756;2024-01-15T00:00:37;7.43;;;5.33;;
10232;SDS011;5161;48.174;11.756;2024-01-15T00:03:06;7.33;;;5.63;;
10232;SDS011;5161;48.174;11.756;2024-01-15T00:05:31;7.47;;;5.60;;
10232;SDS011;5161;48.174;11.756;2024-01-15T00:07:57;7.13;;;4.97;;
10232;SDS011;5161;48.174;11.756;2024-01-15T00:10:23;9.93;;;5.87;;
10232;SDS011;5161;48.174;11.756;2024-01-15T00:12:48;6.97;;;5.00;;
10232;SDS011;5161;48.174;11.756;2024-01-15T00:15:14;7.67;;;5.07;;
10232;SDS011;5161;48.174;11.756;2024-01-15T00:17:40;7.67;;;5.37;;
10232;SDS011;5161;48.174;11.756;2024-01-15T00:20:06;7.33;;;5.07;;
10232;SDS011;5161;48.174;11.756;2024-01-15T00:22:32;8.03;;;5.53;;
10232;SDS011;5161;48.174;11.756;2024-01-15T00:24:57;11.20;;;6.37;;
10232;SDS011;5161;48.174;11.756;2024-01-15T00:27:23;9.20;;;5.83;;
10232;SDS011;5161;48.174;11.756;2024-01-15T00:29:49;7.87;;;5.93;;
10232;SDS011;5161;48.174;11.756;2024-01-15T00:32:16;7.40;;;5.80;;
10232;SDS011;5161;48.174;11.756;2024-01-15T00:34:42;9.77;;;6.37;;
10232;SDS011;5161;48.174;11.756;2024-01-15T00:37:07;9.17;;;5.83;;
10232;SDS011;5161;48.174;11.756;2024-01-15T00:39:33;10.67;;;6.50;;
10232;SDS011;5161;48.174;11.756;2024-01-15T00:41:58;8.87;;;6.13;;
10232;SDS011;5161;48.174;11.756;2024-01-15T00:44:24;9.80;;;6.13;;
10232;SDS011;5161;48.174;11.756;2024-01-15T00:46:50;7.87;;;6.43;;
10232;SDS011;5161;48.174;11.756;2024-01-15T00:49:15;8.53;;;6.53;;
10232;SDS011;5161;48.174;11.756;2024-01-15T00:51:41;9.90;;;6.67;;
10232;SDS011;5161;48.174;11.756;2024-01-15T00:54:07;8.77;;;6.60;;
10232;SDS011;5161;48.174;11.756;2024-01-15T00:56:33;10.63;;;7.20;;
10232;SDS011;5161;48.174;11.756;2024-01-15T00:58:59;10.50;;;7.33;;
10232;SDS011;5161;48.174;11.756;2024-01-15T01:01:25;10.70;;;7.43;;
10232;SDS011;5161;48.174;11.756;2024-01-15T01:03:51;11.67;;;7.87;;
10232;SDS011;5161;48.174;11.756;2024-01-15T01:06:16;13.17;;;8.40;;
10232;SDS011;5161;48.174;11.756;2024-01-15T01:08:42;13.47;;;8.93;;
10232;SDS011;5161;48.174;11.756;2024-01-15T01:11:07;13.60;;;9.20;;
10232;SDS011;5161;48.174;11.756;2024-01-15T01:13:37;15.03;;;9.97;;
10232;SDS011;5161;48.174;11.756;2024-01-15T01:16:03;13.97;;;9.30;;
10232;SDS011;5161;48.174;11.756;2024-01-15T01:18:28;14.30;;;9.23;;
10232;SDS011;5161;48.174;11.756;2024-01-15T01:20:54;16.87;;;10.30;;
10232;SDS011;5161;48.174;11.756;2024-01-15T01:23:19;15.97;;;9.87;;
10232;SDS011;5161;48.174;11.756;2024-01-15T01:25:45;16.60;;;10.27;;
10232;SDS011;5161;48.174;11.756;2024-01-15T01:28:10;15.70;;;10.07;;
10232;SDS011;5161;48.174;11.756;2024-01-15T01:30:36;13.97;;;8.87;;
10232;SDS011;5161;48.174;11.756;2024-01-15T01:33:02;13.13;;;8.93;;
10232;SDS011;5161;48.174;11.756;2024-01-15T01:35:27;12.93;;;8.53;;
10232;SDS011;5161;48.174;11.756;2024-01-15T01:37:53;13.20;;;7.70;;
10232;SDS011;5161;48.174;11.756;2024-01-15T01:40:18;11.23;;;7.53;;
10232;SDS011;5161;48.174;11.756;2024-01-15T01:42:44;11.43;;;7.13;;
10232;SDS011;5161;48.174;11.756;2024-01-15T01:45:10;10.17;;;6.97;;
10232;SDS011;5161;48.174;11.756;2024-01-15T01:47:36;10.17;;;7.07;;
10232;SDS011;5161;48.174;11.756;2024-01-15T01:50:03;12.17;;;7.27;;
10232;SDS011;5161;48.174;11.756;2024-01-15T01:52:29;9.07;;;6.93;;
10232;SDS011;5161;48.174;11.756;2024-01-15T01:54:55;11.60;;;7.10;;
10232;SDS011;5161;48.174;11.756;2024-01-15T01:57:21;11.40;;;7.37;;
10232;SDS011;5161;48.174;11.756;2024-01-15T01:59:47;10.97;;;7.47;;
10232;SDS011;5161;48.174;11.756;2024-01-15T02:02:13;8.93;;;6.70;;
10232;SDS011;5161;48.174;11.756;2024-01-15T02:04:40;10.70;;;7.10;;
10232;SDS011;5161;48.174;11.756;2024-01-15T02:07:05;11.33;;;6.80;;
10232;SDS011;5161;48.174;11.756;2024-01-15T02:09:31;11.87;;;7.47;;
10232;SDS011;5161;48.174;11.756;2024-01-15T02:11:57;11.60;;;6.83;;
10232;SDS011;5161;48.174;11.756;2024-01-15T02:14:23;9.77;;;6.97;;
10232;SDS011;5161;48.174;11.756;2024-01-15T02:16:48;11.30;;;7.67;;
10232;SDS011;5161;48.174;11.756;2024-01-15T02:19:15;11.30;;;7.43;;
10232;SDS011;5161;48.174;11.756;2024-01-15T02:21:41;10.90;;;6.73;;
10232;SDS011;5161;48.174;11.756;2024-01-15T02:24:07;10.17;;;6.87;;
10232;SDS011;5161;48.174;11.756;2024-01-15T02:26:33;10.23;;;6.80;;
10232;SDS011;5161;48.174;11.756;2024-01-15T02:29:01;10.83;;;6.87;;
10232;SDS011;5161;48.174;11.756;2024-01-15T02:31:27;10.63;;;6.60;;
10232;SDS011;5161;48.174;11.756;2024-01-15T02:33:52;10.83;;;6.90;;
10232;SDS011;5161;48.174;11.756;2024-01-15T02:36:18;11.10;;;7.10;;
10232;SDS011;5161;48.174;11.756;2024-01-15T02:38:43;10.17;;;6.47;;
10232;SDS011;5161;48.174;11.756;2024-01-15T02:41:09;9.63;;;6.40;;
10232;SDS011;5161;48.174;11.756;2024-01-15T02:43:35;10.80;;;6.47;;
10232;SDS011;5161;48.174;11.756;2024-01-15T02:46:00;11.77;;;7.23;;
10232;SDS011;5161;48.174;11.756;2024-01-15T02:48:26;10.40;;;7.27;;
10232;SDS011;5161;48.174;11.756;2024-01-15T02:50:51;10.33;;;6.70;;
10232;SDS011;5161;48.174;11.756;2024-01-15T02:53:17;11.70;;;7.40;;
10232;SDS011;5161;48.174;11.756;2024-01-15T02:55:42;10.67;;;7.23;;
10232;SDS011;5161;48.174;11.756;2024-01-15T02:58:08;10.57;;;7.17;;
10232;SDS011;5161;48.174;11.756;2024-01-15T03:00:33;10.47;;;7.20;;
10232;SDS011;5161;48.174;11.756;2024-01-15T03:02:59;11.57;;;7.57;;
10232;SDS011;5161;48.174;11.756;2024-01-15T03:05:24;10.70;;;7.20;;
10232;SDS011;5161;48.174;11.756;2024-01-15T03:07:50;11.47;;;7.50;;
10232;SDS011;5161;48.174;11.756;2024-01-15T03:10:16;12.00;;;7.20;;
10232;SDS011;5161;48.174;11.756;2024-01-15T03:12:41;11.20;;;7.07;;
10232;SDS011;5161;48.174;11.756;2024-01-15T03:15:07;14.83;;;7.50;;
10232;SDS011;5161;48.174;11.756;2024-01-15T03:17:32;13.20;;;8.00;;
10232;SDS011;5161;48.174;11.756;2024-01-15T03:19:58;10.90;;;7.47;;
10232;SDS011;5161;48.174;11.756;2024-01-15T03:22:24;12.17;;;7.83;;
10232;SDS011;5161;48.174;11.756;2024-01-15T03:24:49;13.07;;;8.00;;
10232;SDS011;5161;48.174;11.756;2024-01-15T03:27:15;13.57;;;8.00;;
10232;SDS011;5161;48.174;11.756;2024-01-15T03:29:40;10.77;;;6.97;;
10232;SDS011;5161;48.174;11.756;2024-01-15T03:32:06;12.30;;;7.53;;
10232;SDS011;5161;48.174;11.756;2024-01-15T03:34:32;14.07;;;7.77;;
10232;SDS011;5161;48.174;11.756;2024-01-15T03:36:57;12.17;;;7.53;;
10232;SDS011;5161;48.174;11.756;2024-01-15T03:39:24;13.87;;;7.90;;
10232;SDS011;5161;48.174;11.756;2024-01-15T03:41:50;10.37;;;7.07;;
10232;SDS011;5161;48.174;11.756;2024-01-15T03:44:15;10.90;;;7.50;;
10232;SDS011;5161;48.174;11.756;2024-01-15T03:46:41;11.60;;;7.83;;
10232;SDS011;5161;48.174;11.756;2024-01-15T03:49:07;12.57;;;7.90;;
10232;SDS011;5161;48.174;11.756;2024-01-15T03:51:32;11.50;;;7.73;;
10232;SDS011;5161;48.174;11.756;2024-01-15T03:53:58;12.67;;;7.53;;
10232;SDS011;5161;48.174;11.756;2024-01-15T03:56:23;11.77;;;7.90;;
10232;SDS011;5161;48.174;11.756;2024-01-15T03:58:49;11.87;;;7.50;;
10232;SDS011;5161;48.174;11.756;2024-01-15T04:01:14;10.30;;;7.03;;
10232;SDS011;5161;48.174;11.756;2024-01-15T04:03:40;10.10;;;6.80;;
10232;SDS011;5161;48.174;11.756;2024-01-15T04:06:05;10.33;;;6.87;;
10232;SDS011;5161;48.174;11.756;2024-01-15T04:08:31;12.80;;;7.37;;
10232;SDS011;5161;48.174;11.756;2024-01-15T04:10:56;10.57;;;7.47;;
10232;SDS011;5161;48.174;11.756;2024-01-15T04:13:22;10.60;;;7.33;;
10232;SDS011;5161;48.174;11.756;2024-01-15T04:15:47;11.70;;;7.70;;
10232;SDS011;5161;48.174;11.756;2024-01-15T04:18:15;8.97;;;6.53;;
10232;SDS011;5161;48.174;11.756;2024-01-15T04:20:42;12.30;;;7.37;;
10232;SDS011;5161;48.174;11.756;2024-01-15T04:23:08;11.43;;;7.13;;
10232;SDS011;5161;48.174;11.756;2024-01-15T04:25:34;11.30;;;7.40;;
10232;SDS011;5161;48.174;11.756;2024-01-15T04:27:59;12.57;;;7.03;;
10232;SDS011;5161;48.174;11.756;2024-01-15T04:30:25;10.13;;;6.67;;
10232;SDS011;5161;48.174;11.756;2024-01-15T04:32:50;10.43;;;6.87;;
10232;SDS011;5161;48.174;11.756;2024-01-15T04:35:16;11.50;;;7.70;;
10232;SDS011;5161;48.174;11.756;2024-01-15T04:37:41;12.33;;;7.33;;
10232;SDS011;5161;48.174;11.756;2024-01-15T04:40:07;10.87;;;7.23;;
10232;SDS011;5161;48.174;11.756;2024-01-15T04:42:33;12.30;;;7.10;;
10232;SDS011;5161;48.174;11.756;2024-01-15T04:44:59;10.30;;;7.00;;
10232;SDS011;5161;48.174;11.756;2024-01-15T04:47:25;9.50;;;6.77;;
10232;SDS011;5161;48.174;11.756;2024-01-15T04:49:50;10.40;;;6.80;;
10232;SDS011;5161;48.174;11.756;2024-01-15T04:52:16;11.33;;;6.93;;
10232;SDS011;5161;48.174;11.756;2024-01-15T04:54:42;9.80;;;6.70;;
10232;SDS011;5161;48.174;11.756;2024-01-15T04:57:07;11.87;;;7.50;;
10232;SDS011;5161;48.174;11.756;2024-01-15T04:59:33;10.47;;;7.00;;
10232;SDS011;5161;48.174;11.756;2024-01-15T05:01:58;8.67;;;6.37;;
10232;SDS011;5161;48.174;11.756;2024-01-15T05:04:24;10.57;;;6.93;;
10232;SDS011;5161;48.174;11.756;2024-01-15T05:06:50;10.97;;;6.90;;
10232;SDS011;5161;48.174;11.756;2024-01-15T05:09:15;9.63;;;6.70;;
10232;SDS011;5161;48.174;11.756;2024-01-15T05:11:42;10.50;;;6.80;;
10232;SDS011;5161;48.174;11.756;2024-01-15T05:14:08;10.07;;;6.87;;
10232;SDS011;5161;48.174;11.756;2024-01-15T05:16:34;10.23;;;6.73;;
10232;SDS011;5161;48.174;11.756;2024-01-15T05:18:59;10.90;;;6.63;;
10232;SDS011;5161;48.174;11.756;2024-01-15T05:21:25;12.40;;;6.77;;
10232;SDS011;5161;48.174;11.756;2024-01-15T05:23:50;9.77;;;6.27;;
10232;SDS011;5161;48.174;11.756;2024-01-15T05:26:16;10.17;;;6.40;;
10232;SDS011;5161;48.174;11.756;2024-01-15T05:28:42;9.57;;;6.33;;
10232;SDS011;5161;48.174;11.756;2024-01-15T05:31:08;11.03;;;6.80;;
10232;SDS011;5161;48.174;11.756;2024-01-15T05:33:34;11.73;;;6.87;;
10232;SDS011;5161;48.174;11.756;2024-01-15T05:35:59;10.57;;;6.87;;
10232;SDS011;5161;48.174;11.756;2024-01-15T05:38:25;11.17;;;6.97;;
10232;SDS011;5161;48.174;11.756;2024-01-15T05:40:51;12.00;;;7.40;;
10232;SDS011;5161;48.174;11.756;2024-01-15T05:43:16;10.77;;;7.00;;
10232;SDS011;5161;48.174;11.756;2024-01-15T05:45:42;12.13;;;7.27;;
10232;SDS011;5161;48.174;11.756;2024-01-15T05:48:09;9.10;;;6.23;;
10232;SDS011;5161;48.174;11.756;2024-01-15T05:50:35;11.23;;;6.37;;
10232;SDS011;5161;48.174;11.756;2024-01-15T05:53:00;10.77;;;6.63;;
10232;SDS011;5161;48.174;11.756;2024-01-15T05:55:27;11.63;;;6.83;;
10232;SDS011;5161;48.174;11.756;2024-01-15T05:57:53;8.27;;;6.10;;
10232;SDS011;5161;48.174;11.756;2024-01-15T06:00:18;10.47;;;6.83;;
10232;SDS011;5161;48.174;11.756;2024-01-15T06:02:44;10.17;;;6.40;;
10232;SDS011;5161;48.174;11.756;2024-01-15T06:05:10;12.60;;;7.43;;
10232;SDS011;5161;48.174;11.756;2024-01-15T06:07:35;9.80;;;6.07;;
10232;SDS011;5161;48.174;11.756;2024-01-15T06:10:02;9.80;;;6.50;;
10232;SDS011;5161;48.174;11.756;2024-01-15T06:12:28;12.23;;;6.90;;
10232;SDS011;5161;48.174;11.756;2024-01-15T06:14:53;8.73;;;6.23;;
10232;SDS011;5161;48.174;11.756;2024-01-15T06:17:19;7.77;;;6.03;;
10232;SDS011;5161;48.174;11.756;2024-01-15T06:19:45;8.37;;;6.40;;
10232;SDS011;5161;48.174;11.756;2024-01-15T06:22:11;9.10;;;5.60;;
10232;SDS011;5161;48.174;11.756;2024-01-15T06:24:36;7.03;;;5.30;;
10232;SDS011;5161;48.174;11.756;2024-01-15T06:27:02;9.77;;;6.23;;
10232;SDS011;5161;48.174;11.756;2024-01-15T06:29:27;7.20;;;5.40;;
10232;SDS011;5161;48.174;11.756;2024-01-15T06:31:53;7.17;;;5.10;;
10232;SDS011;5161;48.174;11.756;2024-01-15T06:34:19;8.77;;;5.30;;
10232;SDS011;5161;48.174;11.756;2024-01-15T06:36:44;6.47;;;5.30;;
10232;SDS011;5161;48.174;11.756;2024-01-15T06:39:10;7.13;;;5.07;;
10232;SDS011;5161;48.174;11.756;2024-01-15T06:41:36;8.87;;;5.40;;
10232;SDS011;5161;48.174;11.756;2024-01-15T06:44:08;9.37;;;5.70;;
10232;SDS011;5161;48.174;11.756;2024-01-15T06:46:35;6.77;;;4.87;;
10232;SDS011;5161;48.174;11.756;2024-01-15T06:49:01;7.27;;;5.00;;
10232;SDS011;5161;48.174;11.756;2024-01-15T06:51:26;8.30;;;4.73;;
10232;SDS011;5161;48.174;11.756;2024-01-15T06:53:52;6.80;;;4.83;;
10232;SDS011;5161;48.174;11.756;2024-01-15T06:56:18;7.00;;;4.90;;
10232;SDS011;5161;48.174;11.756;2024-01-15T06:58:43;7.00;;;4.80;;
10232;SDS011;5161;48.174;11.756;2024-01-15T07:01:09;6.63;;;4.50;;
10232;SDS011;5161;48.174;11.756;2024-01-15T07:03:35;7.97;;;5.00;;
10232;SDS011;5161;48.174;11.756;2024-01-15T07:06:00;6.80;;;4.70;;
10232;SDS011;5161;48.174;11.756;2024-01-15T07:08:26;8.77;;;5.30;;
10232;SDS011;5161;48.174;11.756;2024-01-15T07:10:52;10.33;;;6.47;;
10232;SDS011;5161;48.174;11.756;2024-01-15T07:13:17;9.30;;;6.30;;
10232;SDS011;5161;48.174;11.756;2024-01-15T07:15:43;8.87;;;5.20;;
10232;SDS011;5161;48.174;11.756;2024-01-15T07:18:08;6.90;;;5.20;;
10232;SDS011;5161;48.174;11.756;2024-01-15T07:20:34;6.93;;;5.03;;
10232;SDS011;5161;48.174;11.756;2024-01-15T07:22:59;7.03;;;4.97;;
10232;SDS011;5161;48.174;11.756;2024-01-15T07:25:25;7.20;;;4.93;;
10232;SDS011;5161;48.174;11.756;2024-01-15T07:27:51;7.77;;;5.43;;
10232;SDS011;5161;48.174;11.756;2024-01-15T07:30:18;8.40;;;5.17;;
10232;SDS011;5161;48.174;11.756;2024-01-15T07:32:44;8.40;;;5.57;;
10232;SDS011;5161;48.174;11.756;2024-01-15T07:35:10;7.07;;;4.93;;
10232;SDS011;5161;48.174;11.756;2024-01-15T07:37:35;7.37;;;5.27;;
10232;SDS011;5161;48.174;11.756;2024-01-15T07:40:01;7.00;;;5.10;;
10232;SDS011;5161;48.174;11.756;2024-01-15T07:42:29;6.70;;;5.07;;
10232;SDS011;5161;48.174;11.756;2024-01-15T07:44:54;8.23;;;5.40;;
10232;SDS011;5161;48.174;11.756;2024-01-15T07:47:20;6.83;;;5.20;;
10232;SDS011;5161;48.174;11.756;2024-01-15T07:49:46;8.77;;;5.67;;
10232;SDS011;5161;48.174;11.756;2024-01-15T07:52:11;9.80;;;5.37;;
10232;SDS011;5161;48.174;11.756;2024-01-15T07:54:38;8.37;;;5.53;;
10232;SDS011;5161;48.174;11.756;2024-01-15T07:57:03;14.07;;;6.77;;
10232;SDS011;5161;48.174;11.756;2024-01-15T07:59:29;8.57;;;5.53;;
10232;SDS011;5161;48.174;11.756;2024-01-15T08:01:55;10.23;;;6.30;;
10232;SDS011;5161;48.174;11.756;2024-01-15T08:04:20;11.33;;;6.23;;
10232;SDS011;5161;48.174;11.756;2024-01-15T08:06:47;11.93;;;6.53;;
10232;SDS011;5161;48.174;11.756;2024-01-15T08:09:13;13.37;;;6.60;;
10232;SDS011;5161;48.174;11.756;2024-01-15T08:11:39;11.83;;;6.60;;
10232;SDS011;5161;48.174;11.756;2024-01-15T08:14:06;9.10;;;6.30;;
10232;SDS011;5161;48.174;11.756;2024-01-15T08:16:32;9.37;;;6.07;;
10232;SDS011;5161;48.174;11.756;2024-01-15T08:18:57;9.57;;;6.37;;
10232;SDS011;5161;48.174;11.756;2024-01-15T08:21:23;9.53;;;6.40;;
10232;SDS011;5161;48.174;11.756;2024-01-15T08:23:48;10.17;;;7.03;;
10232;SDS011;5161;48.174;11.756;2024-01-15T08:26:14;9.30;;;6.13;;
10232;SDS011;5161;48.174;11.756;2024-01-15T08:28:39;11.77;;;6.70;;
10232;SDS011;5161;48.174;11.756;2024-01-15T08:31:05;10.40;;;6.47;;
10232;SDS011;5161;48.174;11.756;2024-01-15T08:33:31;11.83;;;7.10;;
10232;SDS011;5161;48.174;11.756;2024-01-15T08:35:56;10.57;;;6.90;;
10232;SDS011;5161;48.174;11.756;2024-01-15T08:38:22;10.30;;;7.03;;
10232;SDS011;5161;48.174;11.756;2024-01-15T08:40:48;9.43;;;6.40;;
10232;SDS011;5161;48.174;11.756;2024-01-15T08:43:14;8.57;;;6.13;;
10232;SDS011;5161;48.174;11.756;2024-01-15T08:45:40;10.13;;;6.30;;
10232;SDS011;5161;48.174;11.756;2024-01-15T08:48:06;8.93;;;6.10;;
10232;SDS011;5161;48.174;11.756;2024-01-15T08:50:32;10.03;;;6.53;;
10232;SDS011;5161;48.174;11.756;2024-01-15T08:52:58;9.77;;;6.17;;
10232;SDS011;5161;48.174;11.756;2024-01-15T08:55:23;11.50;;;7.00;;
10232;SDS011;5161;48.174;11.756;2024-01-15T08:57:49;10.40;;;6.83;;
10232;SDS011;5161;48.174;11.756;2024-01-15T09:00:15;10.27;;;6.30;;
10232;SDS011;5161;48.174;11.756;2024-01-15T09:02:41;8.47;;;5.70;;
10232;SDS011;5161;48.174;11.756;2024-01-15T09:05:07;9.27;;;5.77;;
10232;SDS011;5161;48.174;11.756;2024-01-15T09:07:33;8.20;;;5.50;;
10232;SDS011;5161;48.174;11.756;2024-01-15T09:09:59;8.07;;;5.63;;
10232;SDS011;5161;48.174;11.756;2024-01-15T09:12:25;7.47;;;5.30;;
10232;SDS011;5161;48.174;11.756;2024-01-15T09:14:51;7.07;;;5.13;;
10232;SDS011;5161;48.174;11.756;2024-01-15T09:17:18;8.43;;;5.27;;
10232;SDS011;5161;48.174;11.756;2024-01-15T09:19:44;7.00;;;5.50;;
10232;SDS011;5161;48.174;11.756;2024-01-15T09:22:11;10.73;;;5.70;;
10232;SDS011;5161;48.174;11.756;2024-01-15T09:24:40;7.97;;;5.67;;
10232;SDS011;5161;48.174;11.756;2024-01-15T09:27:06;9.43;;;5.97;;
10232;SDS011;5161;48.174;11.756;2024-01-15T09:29:32;8.13;;;5.70;;
10232;SDS011;5161;48.174;11.756;2024-01-15T09:31:57;10.83;;;6.07;;
10232;SDS011;5161;48.174;11.756;2024-01-15T09:34:23;9.17;;;5.60;;
10232;SDS011;5161;48.174;11.756;2024-01-15T09:36:49;9.33;;;6.17;;
10232;SDS011;5161;48.174;11.756;2024-01-15T09:39:14;9.37;;;5.90;;
10232;SDS011;5161;48.174;11.756;2024-01-15T09:41:40;9.70;;;6.40;;
10232;SDS011;5161;48.174;11.756;2024-01-15T09:44:06;9.73;;;5.77;;
10232;SDS011;5161;48.174;11.756;2024-01-15T09:46:33;8.70;;;6.10;;
10232;SDS011;5161;48.174;11.756;2024-01-15T09:48:59;8.60;;;5.90;;
10232;SDS011;5161;48.174;11.756;2024-01-15T09:51:26;11.67;;;6.20;;
10232;SDS011;5161;48.174;11.756;2024-01-15T09:53:55;9.23;;;6.03;;
10232;SDS011;5161;48.174;11.756;2024-01-15T09:56:22;8.63;;;5.63;;
10232;SDS011;5161;48.174;11.756;2024-01-15T09:58:48;7.30;;;5.17;;
10232;SDS011;5161;48.174;11.756;2024-01-15T10:01:16;9.57;;;6.07;;
10232;SDS011;5161;48.174;11.756;2024-01-15T10:03:42;8.23;;;5.50;;
10232;SDS011;5161;48.174;11.756;2024-01-15T10:06:08;9.77;;;6.40;;
10232;SDS011;5161;48.174;11.756;2024-01-15T10:08:36;7.43;;;5.27;;
10232;SDS011;5161;48.174;11.756;2024-01-15T10:11:02;7.67;;;5.60;;
10232;SDS011;5161;48.174;11.756;2024-01-15T10:13:30;8.97;;;6.77;;
10232;SDS011;5161;48.174;11.756;2024-01-15T10:15:55;7.43;;;5.50;;
10232;SDS011;5161;48.174;11.756;2024-01-15T10:18:21;8.80;;;5.13;;
10232;SDS011;5161;48.174;11.756;2024-01-15T10:20:47;8.63;;;5.20;;
10232;SDS011;5161;48.174;11.756;2024-01-15T10:23:13;9.83;;;6.93;;
10232;SDS011;5161;48.174;11.756;2024-01-15T10:25:41;7.60;;;4.83;;
10232;SDS011;5161;48.174;11.756;2024-01-15T10:28:07;7.97;;;5.27;;
10232;SDS011;5161;48.174;11.756;2024-01-15T10:30:33;9.17;;;5.57;;
10232;SDS011;5161;48.174;11.756;2024-01-15T10:33:03;8.03;;;5.87;;
10232;SDS011;5161;48.174;11.756;2024-01-15T10:35:32;8.37;;;5.93;;
10232;SDS011;5161;48.174;11.756;2024-01-15T10:37:59;5.83;;;5.07;;
10232;SDS011;5161;48.174;11.756;2024-01-15T10:40:25;6.67;;;5.00;;
10232;SDS011;5161;48.174;11.756;2024-01-15T10:42:51;6.90;;;4.90;;
10232;SDS011;5161;48.174;11.756;2024-01-15T10:45:17;5.77;;;4.37;;
10232;SDS011;5161;48.174;11.756;2024-01-15T10:47:43;5.00;;;4.33;;
10232;SDS011;5161;48.174;11.756;2024-01-15T10:50:09;7.33;;;4.10;;
10232;SDS011;5161;48.174;11.756;2024-01-15T10:52:36;4.93;;;4.17;;
10232;SDS011;5161;48.174;11.756;2024-01-15T10:55:03;5.63;;;4.27;;
10232;SDS011;5161;48.174;11.756;2024-01-15T10:57:30;5.50;;;3.93;;
10232;SDS011;5161;48.174;11.756;2024-01-15T10:59:55;6.57;;;3.90;;
10232;SDS011;5161;48.174;11.756;2024-01-15T11:02:21;6.40;;;4.60;;
10232;SDS011;5161;48.174;11.756;2024-01-15T11:04:47;5.63;;;3.93;;
10232;SDS011;5161;48.174;11.756;2024-01-15T11:07:13;6.43;;;4.47;;
10232;SDS011;5161;48.174;11.756;2024-01-15T11:09:39;5.17;;;4.20;;
10232;SDS011;5161;48.174;11.756;2024-01-15T11:12:12;7.07;;;4.60;;
10232;SDS011;5161;48.174;11.756;2024-01-15T11:14:44;5.37;;;3.90;;
10232;SDS011;5161;48.174;11.756;2024-01-15T11:17:14;6.27;;;4.10;;
10232;SDS011;5161;48.174;11.756;2024-01-15T11:22:10;5.23;;;4.13;;
10232;SDS011;5161;48.174;11.756;2024-01-15T11:24:56;9.17;;;4.67;;
10232;SDS011;5161;48.174;11.756;2024-01-15T11:27:42;7.60;;;4.57;;
10232;SDS011;5161;48.174;11.756;2024-01-15T11:30:09;6.27;;;4.30;;
10232;SDS011;5161;48.174;11.756;2024-01-15T11:32:35;7.27;;;5.10;;
10232;SDS011;5161;48.174;11.756;2024-01-15T11:35:02;6.30;;;4.60;;
10232;SDS011;5161;48.174;11.756;2024-01-15T11:37:29;6.00;;;4.40;;
10232;SDS011;5161;48.174;11.756;2024-01-15T11:40:17;4.80;;;4.00;;
10232;SDS011;5161;48.174;11.756;2024-01-15T11:42:47;5.63;;;4.47;;
10232;SDS011;5161;48.174;11.756;2024-01-15T11:45:19;5.57;;;4.43;;
10232;SDS011;5161;48.174;11.756;2024-01-15T11:50:44;7.67;;;5.10;;
10232;SDS011;5161;48.174;11.756;2024-01-15T11:55:46;5.30;;;4.07;;
10232;SDS011;5161;48.174;11.756;2024-01-15T11:58:13;5.90;;;4.50;;
10232;SDS011;5161;48.174;11.756;2024-01-15T12:00:40;5.37;;;4.33;;
10232;SDS011;5161;48.174;11.756;2024-01-15T12:03:06;5.13;;;4.10;;
10232;SDS011;5161;48.174;11.756;2024-01-15T12:05:33;7.10;;;4.10;;
10232;SDS011;5161;48.174;11.756;2024-01-15T12:08:01;4.63;;;3.83;;
10232;SDS011;5161;48.174;11.756;2024-01-15T12:10:27;5.43;;;4.10;;
10232;SDS011;5161;48.174;11.756;2024-01-15T12:12:59;5.90;;;4.00;;
10232;SDS011;5161;48.174;11.756;2024-01-15T12:15:28;4.47;;;4.00;;
10232;SDS011;5161;48.174;11.756;2024-01-15T12:17:58;4.07;;;3.67;;
10232;SDS011;5161;48.174;11.756;2024-01-15T12:20:25;5.00;;;3.80;;
10232;SDS011;5161;48.174;11.756;2024-01-15T12:22:54;5.37;;;3.90;;
10232;SDS011;5161;48.174;11.756;2024-01-15T12:25:20;6.87;;;3.60;;
10232;SDS011;5161;48.174;11.756;2024-01-15T12:27:52;5.77;;;4.03;;
10232;SDS011;5161;48.174;11.756;2024-01-15T12:30:18;5.00;;;4.13;;
10232;SDS011;5161;48.174;11.756;2024-01-15T12:32:43;4.70;;;3.77;;
10232;SDS011;5161;48.174;11.756;2024-01-15T12:35:10;4.77;;;3.63;;
10232;SDS011;5161;48.174;11.756;2024-01-15T12:37:37;3.93;;;3.50;;
10232;SDS011;5161;48.174;11.756;2024-01-15T12:40:04;3.97;;;3.23;;
10232;SDS011;5161;48.174;11.756;2024-01-15T12:42:31;3.77;;;3.20;;
10232;SDS011;5161;48.174;11.756;2024-01-15T12:44:57;5.20;;;3.40;;
10232;SDS011;5161;48.174;11.756;2024-01-15T12:47:23;3.50;;;3.20;;
10232;SDS011;5161;48.174;11.756;2024-01-15T12:49:51;3.07;;;2.70;;
10232;SDS011;5161;48.174;11.756;2024-01-15T12:52:19;3.23;;;2.93;;
10232;SDS011;5161;48.174;11.756;2024-01-15T12:54:46;3.70;;;3.20;;
10232;SDS011;5161;48.174;11.756;2024-01-15T12:57:15;3.87;;;3.07;;
10232;SDS011;5161;48.174;11.756;2024-01-15T12:59:41;4.47;;;2.97;;
10232;SDS011;5161;48.174;11.756;2024-01-15T13:02:07;4.40;;;3.50;;
10232;SDS011;5161;48.174;11.756;2024-01-15T13:04:33;3.13;;;2.50;;
10232;SDS011;5161;48.174;11.756;2024-01-15T13:06:59;3.70;;;3.30;;
10232;SDS011;5161;48.174;11.756;2024-01-15T13:09:24;4.87;;;3.37;;
10232;SDS011;5161;48.174;11.756;2024-01-15T13:11:50;4.33;;;3.00;;
10232;SDS011;5161;48.174;11.756;2024-01-15T13:14:16;6.80;;;3.93;;
10232;SDS011;5161;48.174;11.756;2024-01-15T13:16:41;3.97;;;3.57;;
10232;SDS011;5161;48.174;11.756;2024-01-15T13:19:10;3.67;;;3.37;;
10232;SDS011;5161;48.174;11.756;2024-01-15T13:21:40;5.43;;;4.10;;
10232;SDS011;5161;48.174;11.756;2024-01-15T13:24:06;3.83;;;3.40;;
10232;SDS011;5161;48.174;11.756;2024-01-15T13:26:34;3.90;;;3.20;;
10232;SDS011;5161;48.174;11.756;2024-01-15T13:29:03;4.73;;;4.00;;
10232;SDS011;5161;48.174;11.756;2024-01-15T13:31:32;4.83;;;3.80;;
10232;SDS011;5161;48.174;11.756;2024-01-15T13:33:58;5.40;;;4.00;;
10232;SDS011;5161;48.174;11.756;2024-01-15T13:36:24;4.00;;;3.60;;
10232;SDS011;5161;48.174;11.756;2024-01-15T13:38:51;4.93;;;4.00;;
10232;SDS011;5161;48.174;11.756;2024-01-15T13:41:18;5.47;;;4.13;;
10232;SDS011;5161;48.174;11.756;2024-01-15T13:43:45;5.23;;;4.37;;
10232;SDS011;5161;48.174;11.756;2024-01-15T13:46:12;5.33;;;3.97;;
10232;SDS011;5161;48.174;11.756;2024-01-15T13:48:38;5.73;;;3.93;;
10232;SDS011;5161;48.174;11.756;2024-01-15T13:51:04;4.97;;;3.93;;
10232;SDS011;5161;48.174;11.756;2024-01-15T13:53:30;4.47;;;4.00;;
10232;SDS011;5161;48.174;11.756;2024-01-15T13:55:55;5.47;;;4.00;;
10232;SDS011;5161;48.174;11.756;2024-01-15T13:58:21;5.20;;;4.17;;
10232;SDS011;5161;48.174;11.756;2024-01-15T14:00:47;6.77;;;4.33;;
10232;SDS011;5161;48.174;11.756;2024-01-15T14:03:13;5.23;;;4.10;;
10232;SDS011;5161;48.174;11.756;2024-01-15T14:05:39;4.97;;;4.20;;
10232;SDS011;5161;48.174;11.756;2024-01-15T14:08:05;7.30;;;4.40;;
10232;SDS011;5161;48.174;11.756;2024-01-15T14:10:31;6.70;;;4.60;;
10232;SDS011;5161;48.174;11.756;2024-01-15T14:12:56;6.90;;;4.70;;
10232;SDS011;5161;48.174;11.756;2024-01-15T14:15:22;6.80;;;4.77;;
10232;SDS011;5161;48.174;11.756;2024-01-15T14:17:47;7.03;;;4.60;;
10232;SDS011;5161;48.174;11.756;2024-01-15T14:20:13;6.50;;;4.53;;
10232;SDS011;5161;48.174;11.756;2024-01-15T14:22:38;6.53;;;4.67;;
10232;SDS011;5161;48.174;11.756;2024-01-15T14:25:04;4.67;;;4.23;;
10232;SDS011;5161;48.174;11.756;2024-01-15T14:27:30;5.63;;;4.33;;
10232;SDS011;5161;48.174;11.756;2024-01-15T14:29:55;6.83;;;5.13;;
10232;SDS011;5161;48.174;11.756;2024-01-15T14:32:21;6.50;;;4.50;;
10232;SDS011;5161;48.174;11.756;2024-01-15T14:34:47;6.53;;;5.00;;
10232;SDS011;5161;48.174;11.756;2024-01-15T14:37:13;6.20;;;4.30;;
10232;SDS011;5161;48.174;11.756;2024-01-15T14:39:38;6.27;;;4.73;;
10232;SDS011;5161;48.174;11.756;2024-01-15T14:42:04;6.77;;;4.63;;
10232;SDS011;5161;48.174;11.756;2024-01-15T14:44:29;5.80;;;4.67;;